createdAt,value
2023-02-24T00:00:55.049Z,991.54
2023-02-24T00:01:55.050Z,991.52
2023-02-24T00:02:55.033Z,991.52
2023-02-24T00:03:55.024Z,991.51
2023-02-24T00:04:55.040Z,991.45
2023-02-24T00:05:55.018Z,991.50
2023-02-24T00:06:55.000Z,991.48
2023-02-24T00:07:54.992Z,991.48
2023-02-24T00:08:54.978Z,991.39
2023-02-24T00:09:55.009Z,991.51
2023-02-24T00:10:54.969Z,991.46
2023-02-24T00:11:54.961Z,991.46
2023-02-24T00:12:54.953Z,991.38
2023-02-24T00:13:54.943Z,991.40
2023-02-24T00:14:54.970Z,991.37
2023-02-24T00:15:54.938Z,991.40
2023-02-24T00:16:55.001Z,991.41
2023-02-24T00:17:54.924Z,991.41
2023-02-24T00:18:54.897Z,991.35
2023-02-24T00:19:54.921Z,991.33
2023-02-24T00:20:54.881Z,991.33
2023-02-24T00:21:54.913Z,991.31
2023-02-24T00:22:54.875Z,991.31
2023-02-24T00:23:54.856Z,991.29
2023-02-24T00:24:54.884Z,991.28
2023-02-24T00:25:54.847Z,991.32
2023-02-24T00:26:54.837Z,991.17
2023-02-24T00:27:54.832Z,991.28
2023-02-24T00:28:54.823Z,991.27
2023-02-24T00:29:54.849Z,991.21
2023-02-24T00:30:54.923Z,991.23
2023-02-24T00:31:54.931Z,991.19
2023-02-24T00:32:54.826Z,991.24
2023-02-24T00:33:54.786Z,991.16
2023-02-24T00:34:55.827Z,991.17
2023-02-24T00:35:54.789Z,991.19
2023-02-24T00:36:54.775Z,991.14
2023-02-24T00:37:54.819Z,991.13
2023-02-24T00:38:54.757Z,991.17
2023-02-24T00:39:54.779Z,991.08
2023-02-24T00:40:54.746Z,991.03
2023-02-24T00:41:54.741Z,991.07
2023-02-24T00:42:54.738Z,991.11
2023-02-24T00:43:54.727Z,991.05
2023-02-24T00:44:54.788Z,991.10
2023-02-24T00:45:54.750Z,991.05
2023-02-24T00:46:54.707Z,991.11
2023-02-24T00:47:54.697Z,990.98
2023-02-24T00:48:54.691Z,991.02
2023-02-24T00:49:54.706Z,991.00
2023-02-24T00:50:54.679Z,991.02
2023-02-24T00:51:54.663Z,991.00
2023-02-24T00:52:54.655Z,990.99
2023-02-24T00:53:54.654Z,990.95
2023-02-24T00:54:54.662Z,990.97
2023-02-24T00:55:54.638Z,990.95
2023-02-24T00:56:54.634Z,990.91
2023-02-24T00:57:54.621Z,990.84
2023-02-24T00:58:54.618Z,990.89
2023-02-24T00:59:54.667Z,990.79
2023-02-24T01:00:54.602Z,990.75
2023-02-24T01:01:54.747Z,990.78
2023-02-24T01:02:54.585Z,990.85
2023-02-24T01:03:54.634Z,990.81
2023-02-24T01:04:54.602Z,990.77
2023-02-24T01:05:54.580Z,990.72
2023-02-24T01:06:54.553Z,990.70
2023-02-24T01:07:54.546Z,990.72
2023-02-24T01:08:54.547Z,990.75
2023-02-24T01:09:54.560Z,990.79
2023-02-24T01:10:54.525Z,990.79
2023-02-24T01:11:54.552Z,990.72
2023-02-24T01:12:54.508Z,990.75
2023-02-24T01:13:54.502Z,990.65
2023-02-24T01:14:54.529Z,990.68
2023-02-24T01:15:54.493Z,990.72
2023-02-24T01:16:54.482Z,990.60
2023-02-24T01:17:54.479Z,990.59
2023-02-24T01:18:54.472Z,990.53
2023-02-24T01:19:54.459Z,990.55
2023-02-24T01:20:54.481Z,990.57
2023-02-24T01:21:54.444Z,990.54
2023-02-24T01:22:54.463Z,990.54
2023-02-24T01:23:54.436Z,990.48
2023-02-24T01:24:54.427Z,990.55
2023-02-24T01:25:54.440Z,990.50
2023-02-24T01:26:54.409Z,990.49
2023-02-24T01:27:54.410Z,990.40
2023-02-24T01:28:54.397Z,990.46
2023-02-24T01:29:54.405Z,990.48
2023-02-24T01:30:54.511Z,990.44
2023-02-24T01:31:54.489Z,990.44
2023-02-24T01:32:54.524Z,990.40
2023-02-24T01:33:54.352Z,990.40
2023-02-24T01:34:54.346Z,990.44
2023-02-24T01:35:54.364Z,990.38
2023-02-24T01:36:54.353Z,990.24
2023-02-24T01:37:54.337Z,990.36
2023-02-24T01:38:54.319Z,990.34
2023-02-24T01:39:54.308Z,990.27
2023-02-24T01:40:54.333Z,990.25
2023-02-24T01:41:54.305Z,990.29
2023-02-24T01:42:54.296Z,990.24
2023-02-24T01:43:54.284Z,990.32
2023-02-24T01:44:54.284Z,990.30
2023-02-24T01:45:54.298Z,990.22
2023-02-24T01:46:54.307Z,990.30
2023-02-24T01:47:54.273Z,990.26
2023-02-24T01:48:54.253Z,990.28
2023-02-24T01:49:54.237Z,990.23
2023-02-24T01:50:54.253Z,990.18
2023-02-24T01:51:54.226Z,990.18
2023-02-24T01:52:54.219Z,990.19
2023-02-24T01:53:54.214Z,990.25
2023-02-24T01:54:54.204Z,990.23
2023-02-24T01:55:54.225Z,990.25
2023-02-24T01:56:54.188Z,990.23
2023-02-24T01:57:54.215Z,990.19
2023-02-24T01:58:54.176Z,990.13
2023-02-24T01:59:54.173Z,990.18
2023-02-24T02:00:54.191Z,990.20
2023-02-24T02:01:54.268Z,990.13
2023-02-24T02:02:54.207Z,990.21
2023-02-24T02:03:54.142Z,990.16
2023-02-24T02:04:54.144Z,990.09
2023-02-24T02:05:54.163Z,990.04
2023-02-24T02:06:54.119Z,990.02
2023-02-24T02:07:54.108Z,990.12
2023-02-24T02:08:54.105Z,990.10
2023-02-24T02:09:54.096Z,989.99
2023-02-24T02:10:54.120Z,989.99
2023-02-24T02:11:54.082Z,989.96
2023-02-24T02:12:54.074Z,989.95
2023-02-24T02:13:54.133Z,990.00
2023-02-24T02:14:54.057Z,990.01
2023-02-24T02:15:54.110Z,989.95
2023-02-24T02:16:54.041Z,989.93
2023-02-24T02:17:54.032Z,989.94
2023-02-24T02:18:54.027Z,989.89
2023-02-24T02:19:54.018Z,989.85
2023-02-24T02:20:54.039Z,989.86
2023-02-24T02:21:54.000Z,989.85
2023-02-24T02:22:53.992Z,989.89
2023-02-24T02:23:53.993Z,989.87
2023-02-24T02:24:54.011Z,989.80
2023-02-24T02:25:54.005Z,989.74
2023-02-24T02:26:53.978Z,989.72
2023-02-24T02:27:53.969Z,989.79
2023-02-24T02:28:54.043Z,989.73
2023-02-24T02:29:53.945Z,989.76
2023-02-24T02:30:53.988Z,989.73
2023-02-24T02:31:54.028Z,989.56
2023-02-24T02:32:53.964Z,989.64
2023-02-24T02:33:53.914Z,989.60
2023-02-24T02:34:53.910Z,989.60
2023-02-24T02:35:53.929Z,989.59
2023-02-24T02:36:53.895Z,989.57
2023-02-24T02:37:53.896Z,989.58
2023-02-24T02:38:53.882Z,989.55
2023-02-24T02:39:53.874Z,989.53
2023-02-24T02:40:53.889Z,989.47
2023-02-24T02:41:53.880Z,989.44
2023-02-24T02:42:53.852Z,989.38
2023-02-24T02:43:53.848Z,989.41
2023-02-24T02:44:53.834Z,989.40
2023-02-24T02:45:53.860Z,989.37
2023-02-24T02:46:53.852Z,989.35
2023-02-24T02:47:53.858Z,989.33
2023-02-24T02:48:53.847Z,989.40
2023-02-24T02:49:53.797Z,989.37
2023-02-24T02:50:53.797Z,989.37
2023-02-24T02:51:53.840Z,989.40
2023-02-24T02:52:53.769Z,989.37
2023-02-24T02:53:53.764Z,989.45
2023-02-24T02:54:53.752Z,989.42
2023-02-24T02:55:53.752Z,989.50
2023-02-24T02:56:53.766Z,989.47
2023-02-24T02:57:53.726Z,989.44
2023-02-24T02:58:53.733Z,989.49
2023-02-24T02:59:53.726Z,989.46
2023-02-24T03:00:53.732Z,989.45
2023-02-24T03:01:53.724Z,989.44
2023-02-24T03:02:53.703Z,989.45
2023-02-24T03:03:53.698Z,989.42
2023-02-24T03:04:53.765Z,989.36
2023-02-24T03:05:53.709Z,989.35
2023-02-24T03:06:53.697Z,989.36
2023-02-24T03:07:53.650Z,989.23
2023-02-24T03:08:53.656Z,989.28
2023-02-24T03:09:53.648Z,989.33
2023-02-24T03:10:53.642Z,989.34
2023-02-24T03:11:53.651Z,989.32
2023-02-24T03:12:53.616Z,989.29
2023-02-24T03:13:53.608Z,989.24
2023-02-24T03:14:53.608Z,989.37
2023-02-24T03:15:53.592Z,989.30
2023-02-24T03:16:53.676Z,989.26
2023-02-24T03:17:53.599Z,989.28
2023-02-24T03:18:53.569Z,989.22
2023-02-24T03:19:53.566Z,989.25
2023-02-24T03:20:53.571Z,989.19
2023-02-24T03:21:53.579Z,989.21
2023-02-24T03:22:53.549Z,989.17
2023-02-24T03:23:53.542Z,989.15
2023-02-24T03:24:53.556Z,989.12
2023-02-24T03:25:53.525Z,989.12
2023-02-24T03:26:53.548Z,989.09
2023-02-24T03:27:53.514Z,989.10
2023-02-24T03:28:53.501Z,989.01
2023-02-24T03:29:53.497Z,989.10
2023-02-24T03:30:53.538Z,989.07
2023-02-24T03:31:53.623Z,989.01
2023-02-24T03:32:53.621Z,989.09
2023-02-24T03:33:53.472Z,989.07
2023-02-24T03:34:53.461Z,989.01
2023-02-24T03:35:53.455Z,988.98
2023-02-24T03:36:53.474Z,989.05
2023-02-24T03:37:53.440Z,988.98
2023-02-24T03:38:53.421Z,988.99
2023-02-24T03:39:54.438Z,988.99
2023-02-24T03:40:53.471Z,988.95
2023-02-24T03:41:53.418Z,988.98
2023-02-24T03:42:53.431Z,988.93
2023-02-24T03:43:53.396Z,988.98
2023-02-24T03:44:53.395Z,988.90
2023-02-24T03:45:53.404Z,988.89
2023-02-24T03:46:53.373Z,988.86
2023-02-24T03:47:53.393Z,988.92
2023-02-24T03:48:53.367Z,988.84
2023-02-24T03:49:53.358Z,988.86
2023-02-24T03:50:53.341Z,988.86
2023-02-24T03:51:53.332Z,988.86
2023-02-24T03:52:53.353Z,988.82
2023-02-24T03:53:53.329Z,988.77
2023-02-24T03:54:53.316Z,988.73
2023-02-24T03:55:53.303Z,988.73
2023-02-24T03:56:53.294Z,988.74
2023-02-24T03:57:53.316Z,988.75
2023-02-24T03:58:53.271Z,988.76
2023-02-24T03:59:53.269Z,988.77
2023-02-24T04:00:53.269Z,988.76
2023-02-24T04:01:53.256Z,988.83
2023-02-24T04:02:53.279Z,988.76
2023-02-24T04:03:53.261Z,988.80
2023-02-24T04:04:53.262Z,988.81
2023-02-24T04:05:53.229Z,988.78
2023-02-24T04:06:55.782Z,988.81
2023-02-24T04:07:54.247Z,988.76
2023-02-24T04:08:53.195Z,988.78
2023-02-24T04:09:53.198Z,988.73
2023-02-24T04:10:53.188Z,988.76
2023-02-24T04:11:53.176Z,988.69
2023-02-24T04:12:53.321Z,988.71
2023-02-24T04:13:53.172Z,988.73
2023-02-24T04:14:53.194Z,988.70
2023-02-24T04:15:53.186Z,988.72
2023-02-24T04:16:53.146Z,988.67
2023-02-24T04:17:53.183Z,988.70
2023-02-24T04:18:53.120Z,988.61
2023-02-24T04:19:53.121Z,988.67
2023-02-24T04:20:53.214Z,988.61
2023-02-24T04:21:53.100Z,988.58
2023-02-24T04:22:53.114Z,988.61
2023-02-24T04:23:53.079Z,988.62
2023-02-24T04:24:53.068Z,988.60
2023-02-24T04:25:53.070Z,988.59
2023-02-24T04:26:53.062Z,988.59
2023-02-24T04:27:53.086Z,988.57
2023-02-24T04:28:53.058Z,988.55
2023-02-24T04:29:53.066Z,988.55
2023-02-24T04:30:53.164Z,988.60
2023-02-24T04:31:53.242Z,988.58
2023-02-24T04:32:53.124Z,988.60
2023-02-24T04:33:53.032Z,988.52
2023-02-24T04:34:53.004Z,988.52
2023-02-24T04:35:52.996Z,988.57
2023-02-24T04:36:52.991Z,988.57
2023-02-24T04:37:52.989Z,988.60
2023-02-24T04:38:53.000Z,988.55
2023-02-24T04:39:52.974Z,988.48
2023-02-24T04:40:52.965Z,988.52
2023-02-24T04:41:52.955Z,988.50
2023-02-24T04:42:52.957Z,988.42
2023-02-24T04:43:52.985Z,988.42
2023-02-24T04:44:52.964Z,988.45
2023-02-24T04:45:52.943Z,988.47
2023-02-24T04:46:52.908Z,988.46
2023-02-24T04:47:52.904Z,988.51
2023-02-24T04:48:52.941Z,988.49
2023-02-24T04:49:52.895Z,988.44
2023-02-24T04:50:52.883Z,988.50
2023-02-24T04:51:52.903Z,988.42
2023-02-24T04:52:52.872Z,988.38
2023-02-24T04:53:52.880Z,988.35
2023-02-24T04:54:53.862Z,988.37
2023-02-24T04:55:52.853Z,988.35
2023-02-24T04:56:52.849Z,988.30
2023-02-24T04:57:52.833Z,988.31
2023-02-24T04:58:52.858Z,988.23
2023-02-24T04:59:52.819Z,988.27
2023-02-24T05:00:53.127Z,988.20
2023-02-24T05:01:52.811Z,988.24
2023-02-24T05:02:53.115Z,988.27
2023-02-24T05:03:52.849Z,988.25
2023-02-24T05:04:52.829Z,988.26
2023-02-24T05:05:52.783Z,988.21
2023-02-24T05:06:52.776Z,988.19
2023-02-24T05:07:52.781Z,988.18
2023-02-24T05:08:52.789Z,988.17
2023-02-24T05:09:52.759Z,988.16
2023-02-24T05:10:52.758Z,988.29
2023-02-24T05:11:52.748Z,988.32
2023-02-24T05:12:52.730Z,988.21
2023-02-24T05:13:52.754Z,988.32
2023-02-24T05:14:52.714Z,988.34
2023-02-24T05:15:52.757Z,988.35
2023-02-24T05:16:52.697Z,988.33
2023-02-24T05:17:52.694Z,988.26
2023-02-24T05:18:52.725Z,988.31
2023-02-24T05:19:52.685Z,988.27
2023-02-24T05:20:52.667Z,988.29
2023-02-24T05:21:52.667Z,988.39
2023-02-24T05:22:52.672Z,988.25
2023-02-24T05:23:52.696Z,988.25
2023-02-24T05:24:52.638Z,988.32
2023-02-24T05:25:52.635Z,988.25
2023-02-24T05:26:52.625Z,988.34
2023-02-24T05:27:52.617Z,988.31
2023-02-24T05:28:52.649Z,988.29
2023-02-24T05:29:54.713Z,988.26
2023-02-24T05:30:52.649Z,988.16
2023-02-24T05:31:52.654Z,988.18
2023-02-24T05:32:52.582Z,988.20
2023-02-24T05:33:52.604Z,988.18
2023-02-24T05:34:52.569Z,988.21
2023-02-24T05:35:52.563Z,988.26
2023-02-24T05:36:52.556Z,988.25
2023-02-24T05:37:52.551Z,988.20
2023-02-24T05:38:54.535Z,988.20
2023-02-24T05:39:52.532Z,988.15
2023-02-24T05:40:52.518Z,988.24
2023-02-24T05:41:52.514Z,988.14
2023-02-24T05:42:52.520Z,988.07
2023-02-24T05:43:52.524Z,988.24
2023-02-24T05:44:52.490Z,988.23
2023-02-24T05:45:52.482Z,988.28
2023-02-24T05:46:52.528Z,988.26
2023-02-24T05:47:52.477Z,988.25
2023-02-24T05:48:52.487Z,988.23
2023-02-24T05:49:52.481Z,988.18
2023-02-24T05:50:52.444Z,988.18
2023-02-24T05:51:52.444Z,988.22
2023-02-24T05:52:52.434Z,988.20
2023-02-24T05:53:52.451Z,988.20
2023-02-24T05:54:52.411Z,988.17
2023-02-24T05:55:52.417Z,988.28
2023-02-24T05:56:52.417Z,988.15
2023-02-24T05:57:52.392Z,988.13
2023-02-24T05:58:54.680Z,988.15
2023-02-24T05:59:52.381Z,988.10
2023-02-24T06:00:52.383Z,988.15
2023-02-24T06:01:52.441Z,988.06
2023-02-24T06:02:52.390Z,988.10
2023-02-24T06:03:52.376Z,988.14
2023-02-24T06:04:52.336Z,988.17
2023-02-24T06:05:52.329Z,988.12
2023-02-24T06:06:52.329Z,988.18
2023-02-24T06:07:52.318Z,988.09
2023-02-24T06:08:52.336Z,988.07
2023-02-24T06:09:52.300Z,988.01
2023-02-24T06:10:52.294Z,988.07
2023-02-24T06:11:52.323Z,988.07
2023-02-24T06:12:54.497Z,988.07
2023-02-24T06:13:52.302Z,988.12
2023-02-24T06:14:52.270Z,988.11
2023-02-24T06:15:52.259Z,988.06
2023-02-24T06:16:52.251Z,988.10
2023-02-24T06:17:52.244Z,988.15
2023-02-24T06:18:52.267Z,988.07
2023-02-24T06:19:52.223Z,988.09
2023-02-24T06:20:52.217Z,988.10
2023-02-24T06:21:52.224Z,988.06
2023-02-24T06:22:52.203Z,988.04
2023-02-24T06:23:52.195Z,988.05
2023-02-24T06:24:52.215Z,988.08
2023-02-24T06:25:52.187Z,988.13
2023-02-24T06:26:52.172Z,988.14
2023-02-24T06:27:52.166Z,988.12
2023-02-24T06:28:52.168Z,988.12
2023-02-24T06:29:52.174Z,988.15
2023-02-24T06:30:52.172Z,988.14
2023-02-24T06:31:52.204Z,988.12
2023-02-24T06:32:52.161Z,988.13
2023-02-24T06:33:52.126Z,988.12
2023-02-24T06:34:52.137Z,988.06
2023-02-24T06:35:52.100Z,988.06
2023-02-24T06:36:52.103Z,987.98
2023-02-24T06:37:52.095Z,987.99
2023-02-24T06:38:52.081Z,987.91
2023-02-24T06:39:52.134Z,987.91
2023-02-24T06:40:52.064Z,987.93
2023-02-24T06:41:52.067Z,987.95
2023-02-24T06:42:52.056Z,987.88
2023-02-24T06:43:52.052Z,987.97
2023-02-24T06:44:52.066Z,988.02
2023-02-24T06:45:52.044Z,987.98
2023-02-24T06:46:52.026Z,987.97
2023-02-24T06:47:52.021Z,987.92
2023-02-24T06:48:52.014Z,987.98
2023-02-24T06:49:52.041Z,988.00
2023-02-24T06:50:52.004Z,987.92
2023-02-24T06:51:52.048Z,987.93
2023-02-24T06:52:51.977Z,987.97
2023-02-24T06:53:51.973Z,987.95
2023-02-24T06:54:52.018Z,988.01
2023-02-24T06:55:51.976Z,987.97
2023-02-24T06:56:51.949Z,988.06
2023-02-24T06:57:51.941Z,987.97
2023-02-24T06:58:51.930Z,988.03
2023-02-24T06:59:51.959Z,987.99
2023-02-24T07:00:51.963Z,988.01
2023-02-24T07:01:51.914Z,988.01
2023-02-24T07:02:51.917Z,988.05
2023-02-24T07:03:51.945Z,987.92
2023-02-24T07:04:51.919Z,987.91
2023-02-24T07:05:51.882Z,987.97
2023-02-24T07:06:51.875Z,987.98
2023-02-24T07:07:51.891Z,987.92
2023-02-24T07:08:51.862Z,987.98
2023-02-24T07:09:51.882Z,987.87
2023-02-24T07:10:51.867Z,987.90
2023-02-24T07:11:51.844Z,987.92
2023-02-24T07:12:51.825Z,987.99
2023-02-24T07:13:51.818Z,987.95
2023-02-24T07:14:51.847Z,987.88
2023-02-24T07:15:51.808Z,987.97
2023-02-24T07:16:51.861Z,987.90
2023-02-24T07:17:51.789Z,987.88
2023-02-24T07:18:51.785Z,987.78
2023-02-24T07:19:51.804Z,987.84
2023-02-24T07:20:51.796Z,987.78
2023-02-24T07:21:51.763Z,987.75
2023-02-24T07:22:51.755Z,987.74
2023-02-24T07:23:51.754Z,987.77
2023-02-24T07:24:51.765Z,987.72
2023-02-24T07:25:51.743Z,987.68
2023-02-24T07:26:51.774Z,987.65
2023-02-24T07:27:51.717Z,987.73
2023-02-24T07:28:51.715Z,987.58
2023-02-24T07:29:53.213Z,987.58
2023-02-24T07:30:52.782Z,987.63
2023-02-24T07:31:51.802Z,987.62
2023-02-24T07:32:51.718Z,987.56
2023-02-24T07:33:51.669Z,987.58
2023-02-24T07:34:51.701Z,987.64
2023-02-24T07:35:51.665Z,987.58
2023-02-24T07:36:51.652Z,987.61
2023-02-24T07:37:51.643Z,987.59
2023-02-24T07:38:51.642Z,987.56
2023-02-24T07:39:51.661Z,987.51
2023-02-24T07:40:51.622Z,987.51
2023-02-24T07:41:51.611Z,987.49
2023-02-24T07:42:51.607Z,987.46
2023-02-24T07:43:51.602Z,987.41
2023-02-24T07:44:52.012Z,987.41
2023-02-24T07:45:51.620Z,987.40
2023-02-24T07:46:51.580Z,987.38
2023-02-24T07:47:51.568Z,987.39
2023-02-24T07:48:51.552Z,987.43
2023-02-24T07:49:52.580Z,987.46
2023-02-24T07:50:51.537Z,987.44
2023-02-24T07:51:51.530Z,987.41
2023-02-24T07:52:51.527Z,987.39
2023-02-24T07:53:52.344Z,987.38
2023-02-24T07:54:52.532Z,987.30
2023-02-24T07:55:51.486Z,987.33
2023-02-24T07:56:52.489Z,987.32
2023-02-24T07:57:51.487Z,987.34
2023-02-24T07:58:51.477Z,987.33
2023-02-24T07:59:51.508Z,987.32
2023-02-24T08:00:51.458Z,987.23
2023-02-24T08:01:51.466Z,987.31
2023-02-24T08:02:51.510Z,987.28
2023-02-24T08:03:51.439Z,987.29
2023-02-24T08:04:51.555Z,987.34
2023-02-24T08:05:51.453Z,987.28
2023-02-24T08:06:51.424Z,987.34
2023-02-24T08:07:51.411Z,987.33
2023-02-24T08:08:51.401Z,987.37
2023-02-24T08:09:51.416Z,987.30
2023-02-24T08:10:51.381Z,987.27
2023-02-24T08:11:51.377Z,987.24
2023-02-24T08:12:51.370Z,987.24
2023-02-24T08:13:51.368Z,987.23
2023-02-24T08:14:51.623Z,987.26
2023-02-24T08:15:51.510Z,987.23
2023-02-24T08:16:51.349Z,987.21
2023-02-24T08:17:51.340Z,987.20
2023-02-24T08:18:51.327Z,987.15
2023-02-24T08:19:51.342Z,987.15
2023-02-24T08:20:51.314Z,987.10
2023-02-24T08:21:51.299Z,987.17
2023-02-24T08:22:51.285Z,987.07
2023-02-24T08:23:51.289Z,987.13
2023-02-24T08:24:51.304Z,987.10
2023-02-24T08:25:51.277Z,987.13
2023-02-24T08:26:51.259Z,987.07
2023-02-24T08:28:06.030Z,987.00
2023-02-24T08:28:53.247Z,987.03
2023-02-24T08:29:51.269Z,987.00
2023-02-24T08:30:51.333Z,986.98
2023-02-24T08:31:51.333Z,986.99
2023-02-24T08:32:51.297Z,987.01
2023-02-24T08:33:51.279Z,986.93
2023-02-24T08:34:51.247Z,986.95
2023-02-24T08:35:51.215Z,986.91
2023-02-24T08:36:51.202Z,986.97
2023-02-24T08:37:51.328Z,986.93
2023-02-24T08:38:51.181Z,986.85
2023-02-24T08:39:51.172Z,986.81
2023-02-24T08:40:51.212Z,986.78
2023-02-24T08:41:51.163Z,986.83
2023-02-24T08:42:51.152Z,986.82
2023-02-24T08:43:51.169Z,986.79
2023-02-24T08:44:51.138Z,986.78
2023-02-24T08:45:51.175Z,986.75
2023-02-24T08:46:51.234Z,986.79
2023-02-24T08:47:51.117Z,986.75
2023-02-24T08:48:51.106Z,986.66
2023-02-24T08:49:51.110Z,986.70
2023-02-24T08:50:51.163Z,986.68
2023-02-24T08:51:51.091Z,986.66
2023-02-24T08:52:51.080Z,986.66
2023-02-24T08:53:51.069Z,986.63
2023-02-24T08:54:51.056Z,986.57
2023-02-24T08:55:51.089Z,986.62
2023-02-24T08:56:51.043Z,986.57
2023-02-24T08:57:53.423Z,986.55
2023-02-24T08:58:51.028Z,986.55
2023-02-24T08:59:51.024Z,986.49
2023-02-24T09:00:51.099Z,986.55
2023-02-24T09:02:03.637Z,986.47
2023-02-24T09:02:53.002Z,986.45
2023-02-24T09:03:50.996Z,986.46
2023-02-24T09:04:51.021Z,986.46
2023-02-24T09:05:51.006Z,986.43
2023-02-24T09:06:53.844Z,986.38
2023-02-24T09:07:50.968Z,986.40
2023-02-24T09:08:50.949Z,986.38
2023-02-24T09:09:51.964Z,986.29
2023-02-24T09:10:50.956Z,986.34
2023-02-24T09:11:51.938Z,986.36
2023-02-24T09:12:50.928Z,986.25
2023-02-24T09:13:50.925Z,986.34
2023-02-24T09:14:50.917Z,986.24
2023-02-24T09:15:50.945Z,986.13
2023-02-24T09:16:50.900Z,986.20
2023-02-24T09:17:50.899Z,986.13
2023-02-24T09:18:50.881Z,986.14
2023-02-24T09:19:50.885Z,986.06
2023-02-24T09:20:50.903Z,985.96
2023-02-24T09:21:50.859Z,985.98
2023-02-24T09:22:50.854Z,985.96
2023-02-24T09:23:50.842Z,986.04
2023-02-24T09:24:50.846Z,986.09
2023-02-24T09:25:50.861Z,985.93
2023-02-24T09:26:50.844Z,985.94
2023-02-24T09:27:50.819Z,985.87
2023-02-24T09:28:50.865Z,985.92
2023-02-24T09:29:50.794Z,985.91
2023-02-24T09:30:51.005Z,985.83
2023-02-24T09:31:51.907Z,985.79
2023-02-24T09:32:50.902Z,985.83
2023-02-24T09:33:50.780Z,985.77
2023-02-24T09:34:50.762Z,985.77
2023-02-24T09:35:50.756Z,985.62
2023-02-24T09:36:50.763Z,985.76
2023-02-24T09:37:50.739Z,985.70
2023-02-24T09:38:50.733Z,985.69
2023-02-24T09:39:50.723Z,985.60
2023-02-24T09:40:50.712Z,985.65
2023-02-24T09:41:50.742Z,985.67
2023-02-24T09:42:50.715Z,985.64
2023-02-24T09:43:50.702Z,985.59
2023-02-24T09:44:50.687Z,985.59
2023-02-24T09:45:50.832Z,985.57
2023-02-24T09:46:50.830Z,985.57
2023-02-24T09:47:50.662Z,985.56
2023-02-24T09:48:50.650Z,985.48
2023-02-24T09:49:50.674Z,985.50
2023-02-24T09:51:02.530Z,985.38
2023-02-24T09:51:52.670Z,985.44
2023-02-24T09:52:52.179Z,985.33
2023-02-24T09:53:50.610Z,985.35
2023-02-24T09:54:50.608Z,985.28
2023-02-24T09:55:50.609Z,985.32
2023-02-24T09:56:50.637Z,985.34
2023-02-24T09:57:50.579Z,985.32
2023-02-24T09:58:51.591Z,985.36
2023-02-24T09:59:50.575Z,985.28
2023-02-24T10:00:50.594Z,985.28
2023-02-24T10:01:50.583Z,985.27
2023-02-24T10:02:50.550Z,985.18
2023-02-24T10:03:50.542Z,985.17
2023-02-24T10:04:50.529Z,985.12
2023-02-24T10:05:50.529Z,985.18
2023-02-24T10:06:50.549Z,985.14
2023-02-24T10:07:50.505Z,985.10
2023-02-24T10:08:50.521Z,985.17
2023-02-24T10:09:50.492Z,985.12
2023-02-24T10:10:50.485Z,985.07
2023-02-24T10:11:51.502Z,985.04
2023-02-24T10:12:50.466Z,985.03
2023-02-24T10:13:50.465Z,985.00
2023-02-24T10:14:51.608Z,985.00
2023-02-24T10:15:57.024Z,985.00
2023-02-24T10:16:52.523Z,984.95
2023-02-24T10:17:50.441Z,984.91
2023-02-24T10:18:50.439Z,984.88
2023-02-24T10:19:50.428Z,984.91
2023-02-24T10:20:50.494Z,984.91
2023-02-24T10:21:50.432Z,984.87
2023-02-24T10:22:50.577Z,984.82
2023-02-24T10:23:54.915Z,984.76
2023-02-24T10:24:51.388Z,984.78
2023-02-24T10:25:50.371Z,984.77
2023-02-24T10:26:59.970Z,984.80
2023-02-24T10:27:52.370Z,984.73
2023-02-24T10:28:50.343Z,984.76
2023-02-24T10:29:51.342Z,984.71
2023-02-24T10:30:50.398Z,984.74
2023-02-24T10:31:50.509Z,984.65
2023-02-24T10:32:50.402Z,984.73
2023-02-24T10:33:50.360Z,984.74
2023-02-24T10:34:50.302Z,984.78
2023-02-24T10:35:50.295Z,984.78
2023-02-24T10:36:50.336Z,984.75
2023-02-24T10:37:50.283Z,984.73
2023-02-24T10:38:50.275Z,984.69
2023-02-24T10:39:51.901Z,984.74
2023-02-24T10:40:51.259Z,984.76
2023-02-24T10:41:50.310Z,984.75
2023-02-24T10:42:50.250Z,984.71
2023-02-24T10:43:50.259Z,984.77
2023-02-24T10:45:01.178Z,984.74
2023-02-24T10:45:52.258Z,984.72
2023-02-24T10:46:50.289Z,984.75
2023-02-24T10:47:50.236Z,984.63
2023-02-24T10:48:50.195Z,984.65
2023-02-24T10:49:50.220Z,984.71
2023-02-24T10:50:55.926Z,984.66
2023-02-24T10:51:52.186Z,984.61
2023-02-24T10:52:50.205Z,984.62
2023-02-24T10:53:50.229Z,984.63
2023-02-24T10:54:50.177Z,984.53
2023-02-24T10:55:50.152Z,984.56
2023-02-24T10:56:50.142Z,984.52
2023-02-24T10:57:58.609Z,984.48
2023-02-24T10:58:52.121Z,984.51
2023-02-24T10:59:50.205Z,984.44
2023-02-24T11:00:50.132Z,984.49
2023-02-24T11:01:50.141Z,984.47
2023-02-24T11:02:50.150Z,984.47
2023-02-24T11:03:50.083Z,984.44
2023-02-24T11:04:50.073Z,984.46
2023-02-24T11:05:50.067Z,984.46
2023-02-24T11:06:50.064Z,984.41
2023-02-24T11:07:50.073Z,984.41
2023-02-24T11:08:51.071Z,984.38
2023-02-24T11:09:50.043Z,984.25
2023-02-24T11:10:50.023Z,984.28
2023-02-24T11:11:50.028Z,984.31
2023-02-24T11:12:53.571Z,984.21
2023-02-24T11:13:50.995Z,984.36
2023-02-24T11:14:50.002Z,984.38
2023-02-24T11:15:50.016Z,984.29
2023-02-24T11:16:49.986Z,984.25
2023-02-24T11:17:50.033Z,984.30
2023-02-24T11:18:50.013Z,984.26
2023-02-24T11:19:49.953Z,984.17
2023-02-24T11:20:50.187Z,984.14
2023-02-24T11:21:50.939Z,984.22
2023-02-24T11:22:49.958Z,984.16
2023-02-24T11:23:49.926Z,984.22
2023-02-24T11:24:49.920Z,984.16
2023-02-24T11:25:49.927Z,984.17
2023-02-24T11:26:49.903Z,984.11
2023-02-24T11:27:49.944Z,984.24
2023-02-24T11:28:49.894Z,984.21
2023-02-24T11:29:49.887Z,983.96
2023-02-24T11:30:49.952Z,984.27
2023-02-24T11:31:49.993Z,984.18
2023-02-24T11:32:49.988Z,984.15
2023-02-24T11:33:49.847Z,984.08
2023-02-24T11:34:49.844Z,984.10
2023-02-24T11:35:49.829Z,984.08
2023-02-24T11:36:49.816Z,984.00
2023-02-24T11:37:49.812Z,984.07
2023-02-24T11:38:49.831Z,984.07
2023-02-24T11:39:49.805Z,984.09
2023-02-24T11:40:49.784Z,984.00
2023-02-24T11:41:49.784Z,984.09
2023-02-24T11:42:49.777Z,984.05
2023-02-24T11:43:49.796Z,984.00
2023-02-24T11:44:49.765Z,984.02
2023-02-24T11:45:49.753Z,983.96
2023-02-24T11:46:49.740Z,983.91
2023-02-24T11:47:49.751Z,983.89
2023-02-24T11:48:49.753Z,983.92
2023-02-24T11:49:49.730Z,983.97
2023-02-24T11:50:49.716Z,983.95
2023-02-24T11:51:49.706Z,983.95
2023-02-24T11:52:49.694Z,983.95
2023-02-24T11:53:49.731Z,983.90
2023-02-24T11:54:49.679Z,983.94
2023-02-24T11:55:49.689Z,983.86
2023-02-24T11:56:50.670Z,983.79
2023-02-24T11:57:49.690Z,983.70
2023-02-24T11:58:49.677Z,983.81
2023-02-24T11:59:49.656Z,983.83
2023-02-24T12:00:49.630Z,983.84
2023-02-24T12:01:49.641Z,983.76
2023-02-24T12:02:49.656Z,983.66
2023-02-24T12:03:49.656Z,983.73
2023-02-24T12:04:49.621Z,983.69
2023-02-24T12:05:49.628Z,983.67
2023-02-24T12:06:49.591Z,983.66
2023-02-24T12:07:49.591Z,983.72
2023-02-24T12:08:49.600Z,983.68
2023-02-24T12:09:49.572Z,983.66
2023-02-24T12:10:49.570Z,983.61
2023-02-24T12:11:49.548Z,983.57
2023-02-24T12:12:49.554Z,983.53
2023-02-24T12:13:49.572Z,983.58
2023-02-24T12:14:49.537Z,983.61
2023-02-24T12:15:49.562Z,983.53
2023-02-24T12:16:49.531Z,983.57
2023-02-24T12:17:49.510Z,983.45
2023-02-24T12:18:49.537Z,983.52
2023-02-24T12:19:49.489Z,983.52
2023-02-24T12:20:49.489Z,983.52
2023-02-24T12:21:49.501Z,983.47
2023-02-24T12:22:49.473Z,983.53
2023-02-24T12:23:49.494Z,983.47
2023-02-24T12:24:49.508Z,983.39
2023-02-24T12:25:49.453Z,983.42
2023-02-24T12:26:49.431Z,983.38
2023-02-24T12:27:49.423Z,983.40
2023-02-24T12:28:49.417Z,983.36